createdAt,value
2022-12-13T00:00:03.594Z,-3.00
2022-12-13T00:02:59.792Z,-3.00
2022-12-13T00:05:46.761Z,-3.00
2022-12-13T00:08:34.872Z,-3.00
2022-12-13T00:11:22.012Z,-3.00
2022-12-13T00:14:09.191Z,-3.10
2022-12-13T00:16:56.145Z,-3.10
2022-12-13T00:19:43.116Z,-3.20
2022-12-13T00:22:30.074Z,-3.20
2022-12-13T00:25:19.729Z,-3.30
2022-12-13T00:28:07.958Z,-3.30
2022-12-13T00:30:57.226Z,-3.30
2022-12-13T00:33:44.584Z,-3.20
2022-12-13T00:36:31.629Z,-1.20
2022-12-13T00:39:18.740Z,-3.30
2022-12-13T00:42:06.876Z,-3.30
2022-12-13T00:44:56.948Z,-3.30
2022-12-13T00:47:45.761Z,-3.30
2022-12-13T00:50:33.619Z,-3.30
2022-12-13T00:53:20.512Z,-3.30
2022-12-13T00:56:12.542Z,-3.30
2022-12-13T00:59:01.105Z,-3.30
2022-12-13T01:01:48.163Z,-3.30
2022-12-13T01:04:35.203Z,-2.30
2022-12-13T01:07:22.423Z,-3.30
2022-12-13T01:10:09.873Z,-3.30
2022-12-13T01:12:57.095Z,-3.30
2022-12-13T01:15:46.039Z,-3.30
2022-12-13T01:23:14.917Z,-3.20
2022-12-13T01:26:27.737Z,-3.20
2022-12-13T01:29:14.862Z,-3.30
2022-12-13T01:32:05.574Z,-3.40
2022-12-13T01:34:52.482Z,-3.40
2022-12-13T01:37:39.872Z,-3.50
2022-12-13T01:40:26.922Z,-3.50
2022-12-13T01:43:15.328Z,-2.30
2022-12-13T01:45:53.260Z,-3.40
2022-12-13T01:48:47.406Z,-3.40
2022-12-13T01:51:39.568Z,-3.40
2022-12-13T01:54:33.655Z,-3.40
2022-12-13T01:57:22.913Z,-3.40
2022-12-13T02:00:12.276Z,-3.40
2022-12-13T02:03:01.353Z,-3.40
2022-12-13T02:05:56.823Z,-3.50
2022-12-13T02:08:47.675Z,-3.50
2022-12-13T02:11:36.901Z,-3.40
2022-12-13T02:14:24.247Z,-3.40
2022-12-13T02:17:18.712Z,-3.50
2022-12-13T02:20:34.832Z,-3.50
2022-12-13T02:23:59.151Z,-3.50
2022-12-13T02:27:17.000Z,-3.50
2022-12-13T02:30:23.975Z,-3.60
2022-12-13T02:33:31.853Z,-3.60
2022-12-13T02:36:25.478Z,-3.60
2022-12-13T02:39:30.636Z,-3.60
2022-12-13T02:42:23.441Z,-3.60
2022-12-13T02:45:20.533Z,-3.60
2022-12-13T02:54:35.761Z,-3.60
2022-12-13T02:57:32.369Z,-3.60
2022-12-13T03:00:21.976Z,-3.60
2022-12-13T03:03:22.207Z,-3.70
2022-12-13T03:06:34.352Z,-3.60
2022-12-13T03:09:53.733Z,-3.60
2022-12-13T03:13:08.553Z,-3.60
2022-12-13T03:15:58.179Z,-3.60
2022-12-13T03:18:45.850Z,-3.60
2022-12-13T03:21:42.549Z,-3.50
2022-12-13T03:24:34.297Z,-1.70
2022-12-13T03:27:21.513Z,-3.50
2022-12-13T03:30:11.079Z,-3.40
2022-12-13T03:32:58.103Z,-3.60
2022-12-13T03:35:46.070Z,-3.20
2022-12-13T03:38:33.485Z,-3.60
2022-12-13T03:41:23.137Z,-3.70
2022-12-13T03:44:10.095Z,-3.60
2022-12-13T03:46:58.030Z,-3.70
2022-12-13T03:49:54.342Z,-3.70
2022-12-13T03:53:06.047Z,-3.70
2022-12-13T03:58:08.044Z,-3.70
2022-12-13T04:00:55.146Z,-3.70
2022-12-13T04:08:21.907Z,-3.70
2022-12-13T04:13:15.674Z,-3.70
2022-12-13T04:16:03.250Z,-3.70
2022-12-13T04:24:02.303Z,-3.80
2022-12-13T04:26:49.432Z,-3.80
2022-12-13T04:29:36.443Z,-3.80
2022-12-13T04:32:26.979Z,-2.90
2022-12-13T04:35:14.948Z,-3.90
2022-12-13T04:38:02.411Z,-3.90
2022-12-13T04:40:50.109Z,-3.80
2022-12-13T04:43:37.119Z,-3.80
2022-12-13T04:46:24.716Z,-3.90
2022-12-13T04:49:11.944Z,-3.90
2022-12-13T04:52:01.679Z,-4.00
2022-12-13T04:54:55.651Z,-3.90
2022-12-13T04:57:44.344Z,-3.90
2022-12-13T05:00:41.488Z,-3.80
2022-12-13T05:03:31.516Z,-3.90
2022-12-13T05:06:27.356Z,-4.00
2022-12-13T05:09:14.773Z,-3.90
2022-12-13T05:12:02.255Z,-3.90
2022-12-13T05:14:50.435Z,-4.00
2022-12-13T05:17:37.516Z,-4.00
2022-12-13T05:25:37.925Z,-4.00
2022-12-13T05:28:28.927Z,-4.10
2022-12-13T05:31:23.638Z,-4.10
2022-12-13T05:34:11.132Z,-4.10
2022-12-13T05:36:58.317Z,-4.10
2022-12-13T05:39:45.425Z,-4.10
2022-12-13T05:42:32.645Z,-4.10
2022-12-13T05:45:20.464Z,-4.10
2022-12-13T05:48:09.533Z,-4.10
2022-12-13T05:51:10.413Z,-4.10
2022-12-13T05:53:58.440Z,-4.20
2022-12-13T05:56:45.378Z,-4.20
2022-12-13T05:59:33.093Z,-4.20
2022-12-13T06:02:21.866Z,-4.20
2022-12-13T06:06:43.078Z,-4.20
2022-12-13T06:09:31.228Z,-4.20
2022-12-13T06:12:32.201Z,-4.20
2022-12-13T06:15:22.058Z,-4.20
2022-12-13T06:18:09.677Z,-4.30
2022-12-13T06:22:12.151Z,-4.30
2022-12-13T06:25:01.113Z,-4.20
2022-12-13T06:32:49.882Z,-4.20
2022-12-13T06:35:41.219Z,-4.20
2022-12-13T06:38:31.738Z,-4.30
2022-12-13T06:41:20.295Z,-4.30
2022-12-13T06:44:07.398Z,-4.40
2022-12-13T06:46:54.338Z,-4.40
2022-12-13T06:50:05.269Z,-4.40
2022-12-13T06:52:52.705Z,-4.40
2022-12-13T06:55:39.899Z,-4.40
2022-12-13T06:58:27.763Z,-4.40
2022-12-13T07:01:24.463Z,-3.10
2022-12-13T07:04:30.156Z,-4.40
2022-12-13T07:07:17.958Z,-4.50
2022-12-13T07:10:06.020Z,-4.60
2022-12-13T07:13:00.091Z,-4.60
2022-12-13T07:15:48.776Z,-4.60
2022-12-13T07:18:38.406Z,-4.60
2022-12-13T07:21:25.494Z,-4.60
2022-12-13T07:24:12.511Z,-4.60
2022-12-13T07:26:59.487Z,-4.60
2022-12-13T07:29:46.789Z,-4.60
2022-12-13T07:32:35.233Z,-4.60
2022-12-13T07:35:22.200Z,-4.50
2022-12-13T07:38:10.552Z,-4.50
2022-12-13T07:40:57.631Z,-4.40
2022-12-13T07:43:44.634Z,-4.40
2022-12-13T07:46:32.997Z,-4.40
2022-12-13T07:49:21.548Z,-4.30
2022-12-13T07:52:11.248Z,-4.20
2022-12-13T07:54:58.179Z,-4.10
2022-12-13T07:57:45.126Z,-4.10
2022-12-13T08:00:32.991Z,-4.10
2022-12-13T08:03:25.330Z,-4.00
2022-12-13T08:06:14.251Z,-3.90
2022-12-13T08:09:03.652Z,-3.30
2022-12-13T08:11:50.784Z,-3.80
2022-12-13T08:14:37.778Z,-3.70
2022-12-13T08:17:24.994Z,-3.80
2022-12-13T08:20:12.148Z,-3.70
2022-12-13T08:23:02.432Z,-3.60
2022-12-13T08:25:53.766Z,-3.50
2022-12-13T08:28:41.938Z,-3.40
2022-12-13T08:31:33.876Z,-3.40
2022-12-13T08:34:21.596Z,-3.30
2022-12-13T08:37:08.850Z,-3.30
2022-12-13T08:39:56.925Z,-3.30
2022-12-13T08:42:43.907Z,-3.30
2022-12-13T08:46:58.338Z,-3.20
2022-12-13T08:49:46.417Z,-3.10
2022-12-13T08:52:39.745Z,-3.10
2022-12-13T08:55:31.547Z,-3.00
2022-12-13T08:58:19.828Z,-3.00
2022-12-13T09:01:07.768Z,-2.90
2022-12-13T09:03:55.515Z,-2.80
2022-12-13T09:06:43.541Z,-2.70
2022-12-13T09:09:30.672Z,-2.50
2022-12-13T09:12:30.047Z,-1.10
2022-12-13T09:15:51.716Z,-2.40
2022-12-13T09:18:38.841Z,-2.40
2022-12-13T09:21:31.088Z,-2.30
2022-12-13T09:24:24.368Z,0.00
2022-12-13T09:27:27.195Z,-1.00
2022-12-13T09:30:16.146Z,-2.20
2022-12-13T09:33:18.219Z,-2.20
2022-12-13T09:36:13.284Z,-2.20
2022-12-13T09:39:00.308Z,-2.20
2022-12-13T09:41:51.207Z,-2.20
2022-12-13T09:44:48.194Z,-2.20
2022-12-13T09:48:41.364Z,-2.20
2022-12-13T09:51:43.809Z,-0.10
2022-12-13T09:54:33.713Z,-2.10
2022-12-13T09:57:31.577Z,0.10
2022-12-13T10:00:24.903Z,-2.10
2022-12-13T10:03:14.943Z,-2.00
2022-12-13T10:06:13.985Z,-2.00
2022-12-13T10:09:12.473Z,-2.00
2022-12-13T10:11:59.434Z,-2.00
2022-12-13T10:15:13.362Z,-2.00
2022-12-13T10:18:12.336Z,-1.10
2022-12-13T10:21:00.394Z,-0.30
2022-12-13T10:27:46.897Z,-1.90
2022-12-13T10:30:40.478Z,-0.70
2022-12-13T10:33:49.750Z,-1.80
2022-12-13T10:36:37.642Z,-1.70
2022-12-13T10:39:37.997Z,-0.10
2022-12-13T10:42:33.631Z,-1.60
2022-12-13T10:45:24.207Z,-1.50
2022-12-13T10:48:22.304Z,-1.40
2022-12-13T10:51:12.706Z,-1.30
2022-12-13T10:54:00.598Z,-1.20
2022-12-13T10:57:00.303Z,0.70
2022-12-13T10:59:51.763Z,-1.00
2022-12-13T11:02:40.791Z,-0.90
2022-12-13T11:05:31.800Z,-0.70
2022-12-13T11:08:25.769Z,-0.60
2022-12-13T11:11:28.963Z,-0.40
2022-12-13T11:14:19.691Z,0.90
2022-12-13T11:17:22.083Z,0.80
2022-12-13T11:20:17.436Z,-0.50
2022-12-13T11:23:06.835Z,-0.40
2022-12-13T11:25:56.666Z,1.80
2022-12-13T11:29:03.107Z,1.40
2022-12-13T11:31:59.067Z,-0.40
2022-12-13T11:34:53.967Z,-0.20
2022-12-13T11:37:48.595Z,-0.30
2022-12-13T11:40:41.195Z,-0.30
2022-12-13T11:43:35.824Z,1.60
2022-12-13T11:46:35.271Z,-1.90
2022-12-13T11:49:36.833Z,0.80
2022-12-13T11:52:28.378Z,0.10
2022-12-13T11:55:18.222Z,0.10
2022-12-13T11:58:11.083Z,0.80
2022-12-13T12:01:04.696Z,1.40
2022-12-13T12:03:58.643Z,1.70
2022-12-13T12:06:53.526Z,0.30
2022-12-13T12:09:45.829Z,1.70
2022-12-13T12:12:34.594Z,0.40
2022-12-13T12:15:31.374Z,0.40
2022-12-13T12:18:18.735Z,0.50
2022-12-13T12:21:20.788Z,0.70
2022-12-13T12:24:19.712Z,1.30
2022-12-13T12:27:22.269Z,1.40
2022-12-13T12:30:22.643Z,0.60
2022-12-13T12:33:20.264Z,0.60
2022-12-13T12:36:24.418Z,0.60
2022-12-13T12:39:32.781Z,0.60
2022-12-13T12:42:56.555Z,0.50
2022-12-13T12:46:01.042Z,0.50
2022-12-13T12:49:13.534Z,0.20
2022-12-13T12:52:07.129Z,0.50
2022-12-13T12:55:02.657Z,1.10
2022-12-13T12:58:01.684Z,1.50
2022-12-13T13:01:00.833Z,0.70
2022-12-13T13:03:49.570Z,0.70
2022-12-13T13:06:40.957Z,0.70
2022-12-13T13:09:29.753Z,2.70
2022-12-13T13:12:29.289Z,2.50
2022-12-13T13:16:03.988Z,2.00
2022-12-13T13:18:51.765Z,0.80
2022-12-13T13:21:47.255Z,1.00
2022-12-13T13:24:34.353Z,0.80
2022-12-13T13:27:29.106Z,1.90
2022-12-13T13:30:18.942Z,0.80
2022-12-13T13:33:40.351Z,0.80
2022-12-13T13:36:46.439Z,0.80
2022-12-13T13:39:56.351Z,0.80
2022-12-13T13:43:02.975Z,0.80
2022-12-13T13:45:58.970Z,0.80
2022-12-13T13:48:55.612Z,0.80
2022-12-13T13:52:27.411Z,0.80
2022-12-13T13:55:43.877Z,1.80
2022-12-13T13:59:02.226Z,0.70
2022-12-13T14:02:12.732Z,0.80
2022-12-13T14:05:29.454Z,0.80
2022-12-13T14:08:28.694Z,1.80
2022-12-13T14:11:25.156Z,2.60
2022-12-13T14:14:50.059Z,1.70
2022-12-13T14:18:13.646Z,0.60
2022-12-13T14:21:16.639Z,1.20
2022-12-13T14:24:14.705Z,0.70
2022-12-13T14:27:12.369Z,1.70
2022-12-13T14:29:59.966Z,0.60
2022-12-13T14:32:49.476Z,0.60
2022-12-13T14:35:36.639Z,0.60
2022-12-13T14:38:26.220Z,0.50
2022-12-13T14:41:18.500Z,1.70
2022-12-13T14:44:15.057Z,0.50
2022-12-13T14:47:05.052Z,0.40
2022-12-13T14:49:54.771Z,1.40
2022-12-13T14:52:43.531Z,0.40
2022-12-13T14:55:32.587Z,1.80
2022-12-13T14:58:21.298Z,0.40
2022-12-13T15:01:29.080Z,1.60
2022-12-13T15:04:18.519Z,0.10
2022-12-13T15:07:12.727Z,0.00
2022-12-13T15:10:02.433Z,-0.10
2022-12-13T15:12:51.393Z,-0.20
2022-12-13T15:15:39.163Z,0.70
2022-12-13T15:18:27.340Z,0.60
2022-12-13T15:21:21.391Z,-0.30
2022-12-13T15:24:12.906Z,0.00
2022-12-13T15:27:02.861Z,0.30
2022-12-13T15:29:51.695Z,-0.40
2022-12-13T15:33:02.453Z,-0.50
2022-12-13T15:36:02.561Z,-0.50
2022-12-13T15:39:00.952Z,-0.50
2022-12-13T15:41:50.343Z,-0.50
2022-12-13T15:44:44.603Z,-0.60
2022-12-13T15:47:35.130Z,-0.60
2022-12-13T15:50:34.491Z,-0.60
2022-12-13T15:53:24.577Z,-0.60
2022-12-13T15:56:33.084Z,-0.60
2022-12-13T15:59:27.340Z,-0.60
2022-12-13T16:02:17.981Z,0.70
2022-12-13T16:05:07.305Z,-0.70
2022-12-13T16:07:56.766Z,-0.70
2022-12-13T16:10:46.993Z,-0.70
2022-12-13T16:13:36.152Z,0.40
2022-12-13T16:16:28.271Z,-0.80
2022-12-13T16:19:19.648Z,-0.80
2022-12-13T16:22:08.662Z,-0.80
2022-12-13T16:24:56.388Z,-0.80
2022-12-13T16:27:44.225Z,-0.90
2022-12-13T16:30:56.425Z,-0.80
2022-12-13T16:33:44.053Z,-0.80
2022-12-13T16:36:31.888Z,-0.80
2022-12-13T16:39:19.029Z,-0.10
2022-12-13T16:42:06.992Z,0.00
2022-12-13T16:45:17.612Z,-0.90
2022-12-13T16:48:04.397Z,1.10
2022-12-13T16:50:57.594Z,-0.90
2022-12-13T16:53:45.305Z,-0.90
2022-12-13T16:56:32.585Z,-0.90
2022-12-13T16:59:21.738Z,-0.90
2022-12-13T17:02:16.477Z,0.40
2022-12-13T17:05:06.933Z,-0.70
2022-12-13T17:07:56.026Z,-0.90
2022-12-13T17:10:44.000Z,-0.90
2022-12-13T17:13:31.191Z,-0.90
2022-12-13T17:16:18.413Z,-1.00
2022-12-13T17:19:05.401Z,-0.90
2022-12-13T17:21:52.612Z,-0.90
2022-12-13T17:24:40.388Z,-1.40
2022-12-13T17:27:27.460Z,-0.90
2022-12-13T17:30:16.333Z,-0.90
2022-12-13T17:33:06.195Z,-0.90
2022-12-13T17:35:53.409Z,-0.10
2022-12-13T17:38:43.166Z,-0.90
2022-12-13T17:41:31.075Z,-0.90
2022-12-13T17:44:18.371Z,-0.90
2022-12-13T17:47:05.459Z,-0.90
2022-12-13T17:49:52.469Z,-0.90
2022-12-13T17:52:39.757Z,-0.90
2022-12-13T17:55:26.957Z,0.70
2022-12-13T17:58:16.456Z,-1.00
2022-12-13T18:01:10.954Z,-1.00
2022-12-13T18:03:59.249Z,-1.00
2022-12-13T18:06:54.598Z,-2.80
2022-12-13T18:09:47.186Z,-0.90
2022-12-13T18:12:35.029Z,-1.90
2022-12-13T18:15:38.133Z,-2.70
2022-12-13T18:18:27.609Z,-0.90
2022-12-13T18:21:15.875Z,0.70
2022-12-13T18:24:04.940Z,0.00
2022-12-13T18:26:52.293Z,-1.00
2022-12-13T18:29:42.045Z,-0.90
2022-12-13T18:33:14.130Z,-1.00
2022-12-13T18:36:02.272Z,-1.00
2022-12-13T18:38:50.525Z,0.30
2022-12-13T18:41:37.532Z,-1.00
2022-12-13T18:44:24.722Z,-1.00
2022-12-13T18:47:16.496Z,-1.00
2022-12-13T18:50:06.661Z,-1.00
2022-12-13T18:52:56.981Z,-1.00
2022-12-13T18:55:43.932Z,-1.00
2022-12-13T18:58:31.365Z,-1.00
2022-12-13T19:01:19.447Z,-1.10
2022-12-13T19:04:06.499Z,1.20
2022-12-13T19:06:53.719Z,-1.10
2022-12-13T19:09:54.434Z,-1.10
2022-12-13T19:12:42.135Z,-1.10
2022-12-13T19:15:30.168Z,-2.90
2022-12-13T19:18:18.523Z,-0.30
2022-12-13T19:21:07.484Z,-1.20
2022-12-13T19:23:57.807Z,-1.20
2022-12-13T19:26:45.792Z,-1.10
2022-12-13T19:30:06.176Z,-1.10
2022-12-13T19:32:53.079Z,-0.90
2022-12-13T19:35:40.904Z,-1.20
2022-12-13T19:38:27.868Z,-1.20
2022-12-13T19:41:17.848Z,-1.20
2022-12-13T19:44:31.368Z,-1.20
2022-12-13T19:47:18.329Z,-1.30
2022-12-13T19:50:06.028Z,-1.30
2022-12-13T19:52:52.995Z,-1.30
2022-12-13T19:55:43.567Z,-1.20
2022-12-13T19:58:30.495Z,-1.20
2022-12-13T20:01:18.856Z,0.40
2022-12-13T20:04:06.075Z,-1.20
2022-12-13T20:06:53.054Z,0.10
2022-12-13T20:10:06.012Z,-1.30
2022-12-13T20:12:53.595Z,-1.30
2022-12-13T20:15:46.310Z,-1.30
2022-12-13T20:18:34.773Z,-1.40
2022-12-13T20:21:22.086Z,0.70
2022-12-13T20:24:09.089Z,-1.40
2022-12-13T20:26:56.067Z,-0.20
2022-12-13T20:29:43.030Z,-1.30
2022-12-13T20:32:35.383Z,0.90
2022-12-13T20:35:22.925Z,-1.30
2022-12-13T20:38:10.080Z,-1.30
2022-12-13T20:40:59.992Z,-1.30
2022-12-13T20:53:24.844Z,-1.30
2022-12-13T20:56:13.975Z,-0.30
2022-12-13T20:59:01.565Z,-1.30
2022-12-13T21:01:48.808Z,-0.50
2022-12-13T21:04:38.661Z,-0.50
2022-12-13T21:11:00.541Z,-1.30
2022-12-13T21:13:52.933Z,-1.20
2022-12-13T21:16:41.680Z,-1.40
2022-12-13T21:19:37.536Z,-1.40
2022-12-13T21:22:26.885Z,-1.50
2022-12-13T21:25:14.444Z,-1.50
2022-12-13T21:28:02.619Z,-1.50
2022-12-13T21:30:57.416Z,-0.60
2022-12-13T21:34:29.833Z,-1.50
2022-12-13T21:37:17.796Z,-1.60
2022-12-13T21:40:07.913Z,-1.60
2022-12-13T21:42:55.275Z,-1.60
2022-12-13T21:45:43.416Z,-1.60
2022-12-13T21:48:31.710Z,-1.60
2022-12-13T21:51:21.669Z,-1.60
2022-12-13T21:54:11.648Z,0.40
2022-12-13T22:00:55.509Z,-1.70
2022-12-13T22:03:42.485Z,-1.70
2022-12-13T22:06:29.475Z,0.10
2022-12-13T22:09:16.458Z,-1.50
2022-12-13T22:12:32.754Z,0.20
2022-12-13T22:15:20.157Z,-1.50
2022-12-13T22:18:08.031Z,-0.70
2022-12-13T22:22:11.527Z,-1.50
2022-12-13T22:24:58.681Z,-1.50
2022-12-13T22:27:45.631Z,0.70
2022-12-13T22:30:36.626Z,-1.50
2022-12-13T22:33:24.658Z,-0.40
2022-12-13T22:36:37.102Z,-1.40
2022-12-13T22:39:24.718Z,-1.40
2022-12-13T22:42:12.290Z,0.50
2022-12-13T22:54:26.540Z,-1.50
2022-12-13T22:57:13.567Z,-1.60
2022-12-13T23:00:00.900Z,-1.60
2022-12-13T23:02:48.102Z,-1.60
2022-12-13T23:05:35.331Z,-1.60
2022-12-13T23:08:22.288Z,-1.60
2022-12-13T23:11:29.456Z,-1.60
2022-12-13T23:14:18.723Z,-1.90
2022-12-13T23:17:06.545Z,-1.60
2022-12-13T23:19:53.901Z,-1.60
2022-12-13T23:22:47.013Z,-1.60
2022-12-13T23:25:33.999Z,-1.60
2022-12-13T23:28:22.547Z,-1.60
2022-12-13T23:31:10.120Z,-1.60
2022-12-13T23:33:57.794Z,-1.60
2022-12-13T23:36:44.890Z,-1.60
2022-12-13T23:39:35.581Z,-1.60
2022-12-13T23:42:22.752Z,-1.30
2022-12-13T23:51:31.254Z,-1.50
2022-12-13T23:54:19.415Z,-1.60
2022-12-13T23:57:06.661Z,-1.60
